HRYR

Kigali International Airport

Kigali, Rwanda
METAR HRYR 230730Z 33011KT -TSRA FEW023CB BKN025 BKN100 19/16 Q1019 NOSIG
Observed Flight Rules
Feb-23 @ 07:30 UTC (37 minutes ago)
Wind Clouds Conditions
330° at 11 knots
  • Few at 2,300' AGL
  • Broken at 2,500' AGL
  • Broken at 10,000' AGL
  • Light Thunderstorm
  • Light Rain
Temperatures Readings
Current 19°C / 66°F
Dewpoint 16°C / 61°F
Humidity 83%
Altimeter 30.09" Hg
Pressure 1019 hPa
Elevation 1497
METAR HRYR 230730Z 33011KT -TSRA FEW023CB BKN025 BKN100 19/16 Q1019 NOSIG
Observed Flight Rules
Feb-23 @ 07:30 UTC
(37 minutes ago)
Wind
330° at 11 knots
Clouds
  • Few at 2,300' AGL
  • Broken at 2,500' AGL
  • Broken at 10,000' AGL
Conditions
  • Light Thunderstorm
  • Light Rain
Temperature Dewpoint
19°C / 66°F 16°C / 61°F
Humidity Altimeter Pressure
83% 30.09" Hg 1019 hPa